メインページ
METAR-TAF:

METAR-TAF

空港 :

グアテマラシティ, グアテマラ

ラ・アウロラ国際空港

緯度: 14-35N, 経度: 090-31W, 海抜: 1489m

現時点の気象観測

当レポートは32分前の22:00(UTC)に作成
の風 18kt
気温 25°C
湿度 57%
気圧 1025 hPa
視程10km以上
高度2200ftの雲はほとんどない
高度2400ftの雲はほとんどない, 積乱雲.
高度20000ftの千切れ雲あり

METAR: MGGT 262200Z 01018KT 9999 FEW022 FEW024CB BKN200 25/16 Q1025 A3027 CB/PCPN S/SSW/WSW

時間: 16:32 (22:32 UTC)

予報

当レポートは5時間32分前の17:00(UTC)に作成
予報は26日の 18時(UTC)から 27日の 18時(UTC)まで有効
北/北東の風 16kt
視程10km以上
高度1800ftの雲は散在している
27日の 01時(UTC)から 27日の 03時(UTC)まで徐々に
の風 10kt
高度1600ftの雲はほとんどない
確率 30%
27日の 01時(UTC)から 27日の 03時(UTC)まで
視程: 8000m
高度1600ftの千切れ雲あり
27日の 03時(UTC)から 27日の 05時(UTC)まで徐々に
北/北東の風 6kt
視程10km以上
高度1800ftの雲はほとんどない
1400時(UTC)から
の風 10kt

TAF: MGGT 261700Z 2618/2718 03016KT 9999 SCT018 TX27/2620Z TN18/2712Z BECMG 2701/2703 36010KT FEW016 PROB30 2701/2703 8000 RA BKN016 BECMG 2703/2705 02006KT 9999 FEW018 FM1400 36010KT

4,000以上の空港の気象観測と天気予報(METAR報とTAF報)

利用可能な観測所は地図上に黄色い丸と赤い丸で示す。

丸の上にカーソルを重ねると観測所名を参照できる。

次にクリックすると気象観測と天気予報を参照できる。

マップの切り替え:黒色「×」印の緑ボタンをクリックして拡大、「-」印の緑ボタンをクリックして縮小、緑色の三角印をクリックして隣りの地図に切り替え


METAR-TAF: